Flugplatz Brilon/Hochsauerlandkreis

Für EDKO sind keine METAR/TAF Berichte vorhanden.
Es werden die Flugwettermeldungen vom Flugplatz Paderborn Lippstadt in 23 km Entfernung angezeigt.

Bericht für EDLP

vom 21.07. um 21:20 UTC

variable Windrichtung mit 2 kt

Sichtweite 10 km oder mehr

gute Sicht, keine Wolken < 5000 ft, keine CB, keine Wettererscheinungen (CAVOK)

Temperatur 17.0°C

Taupunkt 13.0°C

Luftfeuchtigkeit 77%

Luftdruck 1023 hPa

EDLP 212120Z VRB02KT CAVOK 17/13 Q1023

Prognose für EDLP

vom 21.07. um 00:00 UTC

Am 21.07. zwischen 00:00 UTC und 00:00 UTC

Wind 5 kt aus 280°

Sichtweite 10 km oder mehr

keine signifikanten Wettererscheinungen

keine Wolken


Am 21.07. zwischen 00:00 und 00:00 UTC übergehend zu

variable Windrichtung mit 3 kt

Sichtweite 10 km oder mehr

keine signifikanten Wettererscheinungen

keine Wolken


Zwischen 00:00 und 00:00 UTC übergehend zu

Wind 6 kt aus 200°

Sichtweite 10 km oder mehr

keine signifikanten Wettererscheinungen

keine Wolken


Zwischen 00:00 und 00:00 UTC übergehend zu

Wind 8 kt aus 260°

Sichtweite 10 km oder mehr

keine signifikanten Wettererscheinungen

keine Wolken

TAF EDLP 211700Z 2118/2218 28005KT CAVOK BECMG 2118/2121 VRB03KT BECMG 2203/2205 20006KT BECMG 2208/2211 26008KT
Impressum